Time;durP1;ratioP1;P1;durP2;ratioP2;P2;SDS_P1;SDS_P2;PMS_P1;PMS_P2;Temp;Humidity;BMP_temperature;BMP_pressure;BME280_temperature;BME280_humidity;BME280_pressure;Samples;Min_cycle;Max_cycle;Signal;HPM_P1;HPM_P2
2023/05/26 00:00:50;;;;;;;19.08;4.93;;;9.40;99.90;;;;;;6273732;22;20019;-68
2023/05/26 00:03:17;;;;;;;20.98;4.80;;;9.40;99.90;;;;;;6271347;22;20394;-68
2023/05/26 00:05:44;;;;;;;19.48;3.80;;;9.30;99.90;;;;;;6273689;22;20051;-68
2023/05/26 00:08:10;;;;;;;18.20;5.63;;;9.20;99.90;;;;;;6273540;22;20020;-68
2023/05/26 00:10:36;;;;;;;15.75;4.30;;;9.20;99.90;;;;;;6271752;22;20024;-67
2023/05/26 00:13:02;;;;;;;17.00;4.30;;;9.20;99.90;;;;;;6273654;22;20094;-67
2023/05/26 00:15:28;;;;;;;18.15;4.50;;;9.10;99.90;;;;;;6271949;22;20043;-68
2023/05/26 00:17:57;;;;;;;16.35;3.83;;;9.10;99.90;;;;;;6271537;22;20023;-68
2023/05/26 00:20:26;;;;;;;20.02;4.65;;;9.10;99.90;;;;;;6271728;22;20019;-68
2023/05/26 00:22:51;;;;;;;19.73;4.80;;;9.10;99.90;;;;;;6271565;22;20023;-68
2023/05/26 00:25:17;;;;;;;22.05;3.50;;;9.10;99.90;;;;;;6271154;22;20018;-68
2023/05/26 00:27:43;;;;;;;20.58;4.00;;;9.20;99.90;;;;;;6271307;22;20448;-68
2023/05/26 00:30:10;;;;;;;12.05;3.60;;;9.00;99.90;;;;;;6271239;22;20015;-67
2023/05/26 00:32:36;;;;;;;17.13;4.07;;;9.10;99.90;;;;;;6272480;22;20451;-68
2023/05/26 00:35:02;;;;;;;15.50;5.40;;;9.20;99.90;;;;;;6272605;22;20087;-68
2023/05/26 00:37:28;;;;;;;18.02;3.63;;;9.20;99.90;;;;;;6271241;22;20016;-68
2023/05/26 00:39:53;;;;;;;21.45;4.88;;;9.20;99.90;;;;;;6272117;22;20027;-68
2023/05/26 00:42:19;;;;;;;17.92;4.38;;;9.00;99.90;;;;;;6273166;22;20015;-68
2023/05/26 00:44:45;;;;;;;19.00;4.35;;;9.10;99.90;;;;;;6270891;22;20050;-68
2023/05/26 00:47:11;;;;;;;17.77;3.90;;;9.10;99.90;;;;;;6272351;22;20252;-68
2023/05/26 00:49:37;;;;;;;18.33;4.35;;;9.10;99.90;;;;;;6271023;22;20016;-68
2023/05/26 00:52:03;;;;;;;20.75;3.65;;;9.00;99.90;;;;;;6270761;22;20020;-68
2023/05/26 00:54:29;;;;;;;17.65;3.38;;;8.90;99.90;;;;;;6272982;22;20031;-68
2023/05/26 00:56:55;;;;;;;20.00;4.53;;;9.00;99.90;;;;;;6272893;22;20016;-68
2023/05/26 00:59:21;;;;;;;21.05;4.35;;;9.00;99.90;;;;;;6272728;22;20022;-68
2023/05/26 01:01:51;;;;;;;20.20;5.18;;;8.90;99.90;;;;;;6270474;22;20012;-68
2023/05/26 01:04:17;;;;;;;12.52;3.53;;;8.90;99.90;;;;;;6272835;22;20023;-68
2023/05/26 01:06:46;;;;;;;16.35;3.55;;;8.90;99.90;;;;;;6272874;22;20019;-68
2023/05/26 01:09:13;;;;;;;13.13;4.45;;;8.90;99.90;;;;;;6272757;22;20045;-68
2023/05/26 01:12:01;;;;;;;15.52;4.10;;;8.90;99.90;;;;;;6270870;22;20077;-68
2023/05/26 01:14:48;;;;;;;18.00;3.95;;;8.90;99.90;;;;;;6244997;22;20023;-68
2023/05/26 01:17:30;;;;;;;18.98;4.53;;;8.90;99.90;;;;;;6270211;22;20047;-68
2023/05/26 01:20:21;;;;;;;17.15;3.92;;;8.80;99.90;;;;;;6273150;22;20012;-68
2023/05/26 01:22:53;;;;;;;15.15;3.80;;;8.80;99.90;;;;;;6273013;22;20020;-68
2023/05/26 01:25:44;;;;;;;19.25;4.20;;;8.70;99.90;;;;;;6272154;22;20088;-68
2023/05/26 01:28:17;;;;;;;18.23;4.63;;;8.60;99.90;;;;;;6272645;22;20012;-68
2023/05/26 01:30:44;;;;;;;10.93;3.38;;;8.40;99.90;;;;;;6270509;22;20081;-68
2023/05/26 01:33:10;;;;;;;17.67;4.45;;;8.30;99.90;;;;;;6272481;22;20016;-68
2023/05/26 01:35:36;;;;;;;17.33;5.13;;;8.20;99.90;;;;;;6270563;22;20102;-68
2023/05/26 01:38:03;;;;;;;14.82;4.05;;;8.40;99.90;;;;;;6272502;22;20394;-68
2023/05/26 01:40:29;;;;;;;22.52;4.43;;;8.40;99.90;;;;;;6272461;22;20320;-68
2023/05/26 01:43:22;;;;;;;17.95;4.25;;;8.40;99.90;;;;;;6270080;22;20161;-68
2023/05/26 01:45:55;;;;;;;16.45;4.25;;;8.40;99.90;;;;;;6209072;22;20024;-67
2023/05/26 01:48:22;;;;;;;21.30;4.30;;;8.40;99.90;;;;;;6270433;22;20019;-68
2023/05/26 01:50:56;;;;;;;14.80;3.50;;;8.50;99.90;;;;;;6272159;22;20016;-67
2023/05/26 01:53:26;;;;;;;21.08;4.65;;;8.40;99.90;;;;;;6271951;22;20051;-68
2023/05/26 01:55:56;;;;;;;18.02;4.72;;;8.40;99.90;;;;;;6270206;22;20023;-68
2023/05/26 01:58:23;;;;;;;14.02;3.30;;;8.40;99.90;;;;;;6269912;22;20062;-67
2023/05/26 02:00:49;;;;;;;16.40;3.95;;;8.40;99.90;;;;;;6271936;22;20093;-68
2023/05/26 02:03:15;;;;;;;12.75;4.00;;;8.40;99.90;;;;;;6272013;22;20020;-68
2023/05/26 02:05:41;;;;;;;18.27;3.50;;;8.40;99.90;;;;;;6272452;22;20048;-68
2023/05/26 02:08:10;;;;;;;19.25;4.85;;;8.40;99.90;;;;;;6272324;22;20016;-67
2023/05/26 02:10:39;;;;;;;11.32;3.28;;;8.30;99.90;;;;;;6272140;22;20168;-68
2023/05/26 02:13:06;;;;;;;17.52;4.85;;;8.30;99.90;;;;;;6269792;22;20027;-68
2023/05/26 02:15:32;;;;;;;11.75;4.03;;;8.40;99.90;;;;;;6271478;22;20047;-67
2023/05/26 02:17:58;;;;;;;15.65;4.15;;;8.30;99.90;;;;;;6270330;22;20062;-67
2023/05/26 02:20:25;;;;;;;21.58;4.63;;;8.30;99.90;;;;;;6270015;22;20028;-68
2023/05/26 02:22:51;;;;;;;11.02;3.53;;;8.40;99.90;;;;;;6270080;22;20016;-68
2023/05/26 02:25:17;;;;;;;11.52;3.50;;;8.30;99.90;;;;;;6269762;22;20058;-68
2023/05/26 02:27:42;;;;;;;10.00;3.38;;;8.30;99.90;;;;;;6271420;22;20068;-68
2023/05/26 02:30:08;;;;;;;15.43;3.95;;;8.30;99.90;;;;;;6272154;22;20016;-68
2023/05/26 02:32:37;;;;;;;11.55;3.92;;;8.30;99.90;;;;;;6270061;22;20494;-68
2023/05/26 02:35:04;;;;;;;14.18;3.30;;;8.20;99.90;;;;;;6244685;22;20053;-68
2023/05/26 02:37:30;;;;;;;11.50;4.05;;;8.20;99.90;;;;;;6270158;22;20020;-68
2023/05/26 02:39:56;;;;;;;13.63;3.60;;;8.20;99.90;;;;;;6270508;22;20027;-68
2023/05/26 02:42:22;;;;;;;15.98;3.33;;;8.20;99.90;;;;;;6271794;22;20043;-68
2023/05/26 02:44:48;;;;;;;14.77;4.25;;;8.10;99.90;;;;;;6269937;22;20023;-67
2023/05/26 02:47:14;;;;;;;13.57;3.92;;;8.10;99.90;;;;;;6271443;22;20398;-68
2023/05/26 02:49:42;;;;;;;12.10;3.50;;;8.10;99.90;;;;;;6271809;22;20046;-68
2023/05/26 02:52:08;;;;;;;16.02;3.70;;;8.10;99.90;;;;;;6271366;22;20043;-68
2023/05/26 02:54:34;;;;;;;14.30;4.55;;;8.10;99.90;;;;;;6271248;22;20046;-67
2023/05/26 02:57:00;;;;;;;12.73;3.83;;;8.00;99.90;;;;;;6271453;22;20011;-68
2023/05/26 02:59:25;;;;;;;11.80;5.05;;;8.00;99.90;;;;;;6271696;22;20016;-67
2023/05/26 03:01:51;;;;;;;19.67;3.50;;;8.00;99.90;;;;;;6269326;22;20519;-68
2023/05/26 03:04:17;;;;;;;11.45;3.28;;;8.00;99.90;;;;;;6271747;22;20043;-68
2023/05/26 03:06:43;;;;;;;13.98;3.30;;;8.00;99.90;;;;;;6271028;22;20054;-68
2023/05/26 03:09:09;;;;;;;16.75;3.80;;;8.00;99.90;;;;;;6271600;22;20023;-68
2023/05/26 03:11:34;;;;;;;17.38;3.83;;;8.00;99.90;;;;;;6269826;22;20023;-68
2023/05/26 03:14:00;;;;;;;17.83;3.97;;;7.90;99.90;;;;;;6271509;22;20023;-68
2023/05/26 03:16:27;;;;;;;20.73;4.45;;;7.90;99.90;;;;;;6243872;22;20019;-67
2023/05/26 03:18:53;;;;;;;14.57;3.55;;;7.90;99.90;;;;;;6271827;22;20423;-68
2023/05/26 03:21:19;;;;;;;21.15;4.10;;;7.90;99.90;;;;;;6271161;22;20096;-68
2023/05/26 03:23:45;;;;;;;14.90;3.53;;;7.90;99.90;;;;;;6270909;22;20048;-68
2023/05/26 03:26:11;;;;;;;16.33;4.55;;;7.90;99.90;;;;;;6271235;22;20546;-68
2023/05/26 03:28:37;;;;;;;14.35;3.67;;;7.90;99.90;;;;;;6269962;22;20384;-68
2023/05/26 03:31:03;;;;;;;20.88;4.18;;;7.90;99.90;;;;;;6269593;22;20047;-67
2023/05/26 03:33:31;;;;;;;15.85;3.67;;;8.00;99.90;;;;;;6270766;22;20115;-68
2023/05/26 03:35:59;;;;;;;13.82;4.45;;;8.00;99.90;;;;;;6269726;22;20012;-68
2023/05/26 03:38:25;;;;;;;15.88;4.32;;;8.00;99.90;;;;;;6271472;22;20362;-68
2023/05/26 03:40:50;;;;;;;12.90;3.70;;;8.00;99.90;;;;;;6271524;22;20023;-68
2023/05/26 03:43:16;;;;;;;10.45;4.32;;;8.00;99.90;;;;;;6271829;22;20016;-68
2023/05/26 03:45:42;;;;;;;18.02;4.03;;;8.00;99.90;;;;;;6271758;22;20321;-67
2023/05/26 03:48:12;;;;;;;16.85;4.45;;;7.90;99.90;;;;;;6269965;22;20126;-68
2023/05/26 03:50:38;;;;;;;11.23;3.75;;;8.00;99.90;;;;;;6271975;22;20016;-68
2023/05/26 03:53:04;;;;;;;15.60;4.18;;;7.90;99.90;;;;;;6271565;22;20027;-68
2023/05/26 03:55:33;;;;;;;21.13;5.03;;;8.00;99.90;;;;;;6269254;22;20011;-68
2023/05/26 03:57:59;;;;;;;13.55;4.18;;;8.00;99.90;;;;;;6269604;22;20015;-68
2023/05/26 04:00:30;;;;;;;12.95;4.10;;;8.00;99.90;;;;;;6269442;22;20347;-68
2023/05/26 04:02:56;;;;;;;19.02;4.20;;;8.00;99.90;;;;;;6269279;22;20016;-68
2023/05/26 04:05:22;;;;;;;14.38;4.30;;;8.00;99.90;;;;;;6271625;22;20054;-68
2023/05/26 04:07:47;;;;;;;19.10;5.40;;;8.00;99.90;;;;;;6271278;22;20031;-68
2023/05/26 04:10:13;;;;;;;14.50;4.32;;;8.10;99.90;;;;;;6270910;22;20016;-68
2023/05/26 04:12:39;;;;;;;13.95;4.15;;;8.10;99.90;;;;;;6271442;22;20023;-68
2023/05/26 04:15:05;;;;;;;14.25;4.05;;;8.20;99.90;;;;;;6270980;22;20710;-68
2023/05/26 04:17:31;;;;;;;14.80;4.72;;;8.20;99.90;;;;;;6271346;22;20070;-68
2023/05/26 04:19:57;;;;;;;14.60;3.83;;;8.20;99.90;;;;;;6269480;22;20016;-68
2023/05/26 04:22:24;;;;;;;19.83;4.00;;;8.30;99.90;;;;;;6269490;22;20340;-68
2023/05/26 04:24:50;;;;;;;9.90;3.67;;;8.40;99.90;;;;;;6270883;22;20011;-68
2023/05/26 04:27:16;;;;;;;18.27;5.15;;;8.30;99.90;;;;;;6269520;22;20090;-68
2023/05/26 04:29:41;;;;;;;15.15;3.72;;;8.40;99.90;;;;;;6243951;22;20020;-67
2023/05/26 04:32:11;;;;;;;18.80;4.93;;;8.40;99.90;;;;;;6271298;22;20346;-67
2023/05/26 04:34:38;;;;;;;22.75;5.38;;;8.40;99.90;;;;;;6243900;22;20054;-67
2023/05/26 04:37:04;;;;;;;15.68;3.50;;;8.50;99.90;;;;;;6272196;22;20474;-67
2023/05/26 04:39:33;;;;;;;15.45;4.43;;;8.50;99.90;;;;;;6272247;22;20018;-68
2023/05/26 04:41:59;;;;;;;15.60;4.13;;;8.60;99.90;;;;;;6270537;22;20019;-66
2023/05/26 04:44:25;;;;;;;16.83;4.15;;;8.80;99.90;;;;;;6272540;22;20565;-68
2023/05/26 04:46:52;;;;;;;17.10;3.97;;;8.80;99.90;;;;;;6272377;22;20063;-68
2023/05/26 04:49:22;;;;;;;15.82;3.78;;;8.90;99.90;;;;;;6270970;22;20023;-67
2023/05/26 04:51:52;;;;;;;16.98;4.22;;;8.90;99.90;;;;;;6272307;22;20041;-67
2023/05/26 04:54:17;;;;;;;21.55;3.88;;;8.90;99.90;;;;;;6272808;22;20019;-68
2023/05/26 04:56:43;;;;;;;19.40;4.22;;;8.90;99.90;;;;;;6273073;22;20096;-68
2023/05/26 04:59:09;;;;;;;16.70;3.92;;;9.10;99.90;;;;;;6272884;22;20007;-67
2023/05/26 05:01:35;;;;;;;21.42;4.53;;;9.20;99.90;;;;;;6245762;22;20015;-68
2023/05/26 05:04:01;;;;;;;19.23;5.10;;;9.30;99.90;;;;;;6272851;22;20019;-68
2023/05/26 05:06:26;;;;;;;23.75;4.65;;;9.50;99.90;;;;;;6273079;22;20079;-67
2023/05/26 05:08:52;;;;;;;16.90;4.15;;;9.50;99.90;;;;;;6270538;22;20352;-68
2023/05/26 05:11:18;;;;;;;15.57;4.03;;;9.60;99.90;;;;;;6270579;22;20015;-67
2023/05/26 05:13:44;;;;;;;20.02;4.32;;;9.70;99.90;;;;;;6270548;22;20015;-68
2023/05/26 05:16:09;;;;;;;16.08;3.90;;;9.80;99.90;;;;;;6270404;22;20514;-68
2023/05/26 05:18:35;;;;;;;20.60;5.43;;;9.80;99.90;;;;;;6272646;22;20161;-68
2023/05/26 05:21:01;;;;;;;19.02;4.50;;;10.00;99.90;;;;;;6272597;22;20347;-67
2023/05/26 05:23:27;;;;;;;21.50;3.80;;;10.10;99.90;;;;;;6272588;22;20436;-68
2023/05/26 05:25:52;;;;;;;18.60;4.40;;;10.10;99.90;;;;;;6271807;22;20026;-68
2023/05/26 05:28:18;;;;;;;16.52;4.32;;;10.20;99.90;;;;;;6273106;22;20082;-67
2023/05/26 05:30:44;;;;;;;25.42;4.88;;;10.20;99.90;;;;;;6270694;22;20023;-67
2023/05/26 05:33:10;;;;;;;27.33;7.68;;;10.30;99.90;;;;;;6270686;22;20008;-67
2023/05/26 05:35:35;;;;;;;16.80;4.15;;;10.30;99.90;;;;;;6272384;22;20509;-67
2023/05/26 05:38:01;;;;;;;18.17;3.33;;;10.40;99.90;;;;;;6271760;22;20027;-68
2023/05/26 05:40:27;;;;;;;19.88;6.15;;;10.60;99.90;;;;;;6272205;22;20019;-68
2023/05/26 05:42:52;;;;;;;23.08;4.10;;;10.60;99.90;;;;;;6272221;22;20573;-68
2023/05/26 05:45:18;;;;;;;23.55;5.00;;;10.70;99.90;;;;;;6271864;22;20012;-67
2023/05/26 05:47:44;;;;;;;23.20;3.90;;;10.80;99.90;;;;;;6272082;22;20031;-68
2023/05/26 05:50:10;;;;;;;15.85;4.18;;;10.80;99.90;;;;;;6270236;22;20393;-67
2023/05/26 05:52:35;;;;;;;23.80;4.03;;;10.90;99.90;;;;;;6271823;22;20074;-67
2023/05/26 05:55:01;;;;;;;14.27;4.40;;;10.90;99.90;;;;;;6271885;22;20020;-68
2023/05/26 05:57:27;;;;;;;17.88;3.75;;;11.10;99.90;;;;;;6269652;22;20050;-67
2023/05/26 05:59:53;;;;;;;18.13;4.38;;;11.20;99.90;;;;;;6271582;22;20011;-68
2023/05/26 06:02:19;;;;;;;14.07;3.60;;;11.10;99.90;;;;;;6271748;22;20015;-68
2023/05/26 06:04:44;;;;;;;10.15;3.33;;;11.20;99.90;;;;;;6271910;22;20003;-67
2023/05/26 06:07:10;;;;;;;19.35;4.05;;;11.30;99.90;;;;;;6271403;22;20538;-67
2023/05/26 06:09:36;;;;;;;18.00;4.43;;;11.40;99.90;;;;;;6270787;22;20073;-68
2023/05/26 06:12:02;;;;;;;14.82;4.43;;;11.40;99.90;;;;;;6271755;22;20093;-68
2023/05/26 06:14:27;;;;;;;14.82;3.90;;;11.50;99.90;;;;;;6269645;22;20725;-67
2023/05/26 06:16:56;;;;;;;22.05;4.47;;;11.50;99.90;;;;;;6272001;22;20082;-68
2023/05/26 06:19:21;;;;;;;20.65;4.28;;;11.50;99.90;;;;;;6269690;22;20505;-66
2023/05/26 06:21:49;;;;;;;24.48;3.95;;;11.50;99.90;;;;;;6271713;22;20020;-68
2023/05/26 06:24:15;;;;;;;19.67;5.43;;;11.50;99.90;;;;;;6269511;22;20834;-68
2023/05/26 06:26:41;;;;;;;19.27;3.88;;;11.60;99.90;;;;;;6271634;22;20020;-67
2023/05/26 06:29:06;;;;;;;20.25;4.15;;;11.60;99.90;;;;;;6271201;22;20444;-68
2023/05/26 06:31:32;;;;;;;14.95;3.80;;;11.60;99.90;;;;;;6269599;22;20019;-68
2023/05/26 06:33:58;;;;;;;18.00;4.57;;;11.70;99.90;;;;;;6271275;22;20020;-68
2023/05/26 06:36:24;;;;;;;20.25;4.05;;;11.60;99.90;;;;;;6271261;22;20054;-68
2023/05/26 06:38:49;;;;;;;13.82;4.28;;;11.60;99.90;;;;;;6271794;22;20015;-67
2023/05/26 06:41:15;;;;;;;16.95;4.80;;;11.70;99.90;;;;;;6271907;22;20049;-68
2023/05/26 06:43:41;;;;;;;18.85;3.83;;;11.80;99.90;;;;;;6272328;22;20051;-68
2023/05/26 06:46:07;;;;;;;16.17;3.65;;;11.90;99.90;;;;;;6270348;22;20039;-67
2023/05/26 06:48:32;;;;;;;16.27;4.15;;;11.90;99.90;;;;;;6270282;22;20053;-68
2023/05/26 06:50:58;;;;;;;15.15;3.75;;;12.00;99.90;;;;;;6272116;22;20019;-68
2023/05/26 06:53:24;;;;;;;19.48;3.95;;;12.10;99.90;;;;;;6271609;22;20336;-68
2023/05/26 06:55:49;;;;;;;20.42;4.10;;;12.20;99.90;;;;;;6271830;22;20012;-68
2023/05/26 06:58:15;;;;;;;22.55;4.15;;;12.20;99.90;;;;;;6244321;22;20020;-68
2023/05/26 07:00:56;;;;;;;16.23;3.40;;;12.20;99.90;;;;;;6269979;22;20031;-67
2023/05/26 07:03:22;;;;;;;17.42;3.70;;;12.30;99.90;;;;;;6269366;22;20051;-67
2023/05/26 07:05:48;;;;;;;20.30;3.55;;;12.50;99.90;;;;;;6271803;22;20016;-67
2023/05/26 07:08:13;;;;;;;22.95;5.60;;;12.50;99.90;;;;;;6271232;22;20392;-68
2023/05/26 07:10:39;;;;;;;19.60;3.72;;;12.50;99.90;;;;;;6271613;22;20038;-66
2023/05/26 07:13:05;;;;;;;19.83;3.95;;;12.50;99.90;;;;;;6269528;22;20396;-68
2023/05/26 07:15:31;;;;;;;12.18;3.58;;;12.50;99.90;;;;;;6271504;22;20031;-68
2023/05/26 07:17:57;;;;;;;21.95;5.85;;;12.50;99.90;;;;;;6269458;22;20019;-68
2023/05/26 07:20:22;;;;;;;18.77;5.30;;;12.60;99.90;;;;;;6271670;22;20073;-67
2023/05/26 07:22:48;;;;;;;17.58;3.78;;;12.60;99.90;;;;;;6271209;22;20019;-67
2023/05/26 07:25:14;;;;;;;16.42;4.20;;;12.60;99.90;;;;;;6269347;22;20026;-68
2023/05/26 07:27:40;;;;;;;22.58;3.80;;;12.60;99.90;;;;;;6271356;22;20083;-67
2023/05/26 07:30:08;;;;;;;21.85;4.32;;;12.50;99.90;;;;;;6271143;22;20023;-68
2023/05/26 07:32:33;;;;;;;17.48;3.30;;;12.50;99.90;;;;;;6270874;22;20497;-68
2023/05/26 07:34:59;;;;;;;18.02;5.60;;;12.40;99.90;;;;;;6271430;22;20011;-68
2023/05/26 07:37:25;;;;;;;19.15;3.50;;;12.30;99.90;;;;;;6271559;22;20519;-67
2023/05/26 07:39:50;;;;;;;12.32;2.80;;;12.40;99.90;;;;;;6271360;22;20082;-68
2023/05/26 07:42:16;;;;;;;15.50;4.38;;;12.50;99.90;;;;;;6271453;22;20007;-67
2023/05/26 07:44:42;;;;;;;16.67;4.63;;;12.60;99.90;;;;;;6270054;22;20396;-67
2023/05/26 07:47:08;;;;;;;14.85;3.97;;;12.60;99.90;;;;;;6243291;22;20020;-67
2023/05/26 07:49:33;;;;;;;17.60;3.45;;;12.60;99.90;;;;;;6271236;22;20012;-68
2023/05/26 07:51:59;;;;;;;21.75;3.80;;;12.60;99.90;;;;;;6271137;22;20517;-68
2023/05/26 07:54:25;;;;;;;17.77;3.55;;;12.60;99.90;;;;;;6269623;22;20015;-67
2023/05/26 07:56:50;;;;;;;13.45;3.70;;;12.60;99.90;;;;;;6271079;22;20022;-68
2023/05/26 07:59:16;;;;;;;13.15;3.85;;;12.60;99.90;;;;;;6271047;22;20110;-68
2023/05/26 08:01:42;;;;;;;17.15;3.90;;;12.70;99.90;;;;;;6271037;22;20439;-68
2023/05/26 08:04:07;;;;;;;18.15;4.22;;;12.70;99.90;;;;;;6269298;22;20554;-69
2023/05/26 08:06:35;;;;;;;18.58;3.85;;;12.80;99.90;;;;;;6269030;22;20012;-69
2023/05/26 08:09:02;;;;;;;11.48;3.40;;;12.90;99.90;;;;;;6269257;22;20452;-68
2023/05/26 08:11:27;;;;;;;11.70;3.15;;;12.90;99.90;;;;;;6273064;22;20057;-69
2023/05/26 08:13:53;;;;;;;19.75;3.70;;;13.00;99.90;;;;;;6245190;22;20019;-68
2023/05/26 08:16:19;;;;;;;17.58;4.00;;;13.20;99.90;;;;;;6272432;22;20030;-68
2023/05/26 08:18:45;;;;;;;15.02;3.90;;;13.40;99.90;;;;;;6271025;22;20028;-68
2023/05/26 08:21:10;;;;;;;21.95;6.63;;;13.40;99.90;;;;;;6271180;22;20089;-68
2023/05/26 08:23:37;;;;;;;18.90;4.80;;;13.40;99.90;;;;;;6272071;22;20057;-68
2023/05/26 08:26:02;;;;;;;8.77;2.53;;;13.40;99.90;;;;;;6272284;22;20019;-68
2023/05/26 08:28:28;;;;;;;13.10;3.50;;;13.30;99.90;;;;;;6270932;22;20016;-68
2023/05/26 08:30:55;;;;;;;12.82;2.88;;;13.40;99.90;;;;;;6271030;22;20384;-67
2023/05/26 08:33:21;;;;;;;12.73;2.80;;;13.40;99.90;;;;;;6272732;22;20406;-68
2023/05/26 08:35:46;;;;;;;18.10;3.22;;;13.40;99.90;;;;;;6271872;22;20087;-67
2023/05/26 08:38:12;;;;;;;18.15;4.60;;;13.40;99.90;;;;;;6272164;22;20003;-68
2023/05/26 08:40:38;;;;;;;16.33;4.10;;;13.60;99.90;;;;;;6272336;22;20070;-68
2023/05/26 08:43:09;;;;;;;25.65;4.05;;;13.60;99.90;;;;;;6270826;22;20099;-68
2023/05/26 08:45:37;;;;;;;20.88;3.85;;;13.70;99.90;;;;;;6271345;22;20058;-68
2023/05/26 08:48:06;;;;;;;16.08;4.60;;;13.70;99.90;;;;;;6270480;22;20051;-68
2023/05/26 08:50:32;;;;;;;11.65;3.15;;;13.90;99.90;;;;;;6273128;22;20301;-67
2023/05/26 08:53:00;;;;;;;14.60;3.25;;;14.00;99.90;;;;;;6271691;22;20015;-68
2023/05/26 08:55:31;;;;;;;14.30;3.38;;;14.10;99.90;;;;;;6270966;22;20022;-69
2023/05/26 08:58:00;;;;;;;12.63;2.67;;;14.20;99.90;;;;;;6272275;22;20008;-70
2023/05/26 09:00:29;;;;;;;16.20;3.53;;;14.10;99.90;;;;;;6270665;22;20518;-67
2023/05/26 09:02:56;;;;;;;11.75;3.30;;;14.00;99.90;;;;;;6270053;22;20022;-70
2023/05/26 09:05:22;;;;;;;12.93;3.58;;;14.00;99.90;;;;;;6245291;22;20023;-70
2023/05/26 09:07:48;;;;;;;15.55;3.03;;;14.10;99.90;;;;;;6272754;22;20030;-70
2023/05/26 09:10:30;;;;;;;15.40;2.95;;;14.10;99.90;;;;;;6270939;22;20441;-70
2023/05/26 09:13:06;;;;;;;14.90;3.20;;;14.10;99.90;;;;;;6271417;22;20385;-70
2023/05/26 09:15:32;;;;;;;21.20;5.18;;;14.20;99.90;;;;;;6270933;22;20011;-69
2023/05/26 09:18:06;;;;;;;15.02;3.22;;;14.30;99.90;;;;;;6271213;22;20027;-70
2023/05/26 09:20:32;;;;;;;17.42;2.70;;;14.40;99.90;;;;;;6245546;22;20399;-70
2023/05/26 09:22:58;;;;;;;18.00;3.80;;;14.40;99.90;;;;;;6272777;22;20015;-70
2023/05/26 09:25:35;;;;;;;9.68;2.80;;;14.50;99.90;;;;;;6270610;22;20026;-70
2023/05/26 09:28:06;;;;;;;13.52;2.42;;;14.50;99.90;;;;;;6271295;22;20093;-70
2023/05/26 09:30:40;;;;;;;13.38;2.90;;;14.50;99.90;;;;;;6245218;22;20050;-70
2023/05/26 09:33:08;;;;;;;10.68;2.55;;;14.50;99.90;;;;;;6270942;22;20019;-70
2023/05/26 09:35:39;;;;;;;18.88;4.57;;;14.50;99.90;;;;;;6272851;22;20016;-70
2023/05/26 09:38:06;;;;;;;14.68;3.05;;;14.60;99.90;;;;;;6272698;22;20073;-70
2023/05/26 09:40:32;;;;;;;11.30;2.55;;;14.80;99.90;;;;;;6270806;22;20014;-70
2023/05/26 09:42:58;;;;;;;11.35;2.53;;;14.80;99.90;;;;;;6272507;22;20019;-71
2023/05/26 09:45:24;;;;;;;17.45;3.47;;;14.80;99.90;;;;;;6270426;22;20351;-70
2023/05/26 09:47:57;;;;;;;13.80;3.08;;;14.80;99.90;;;;;;6270671;22;20018;-70
2023/05/26 09:50:24;;;;;;;10.77;2.35;;;14.90;99.90;;;;;;6270613;22;20015;-70
2023/05/26 09:52:50;;;;;;;13.98;2.80;;;14.90;99.90;;;;;;6272498;22;20016;-70
2023/05/26 09:55:19;;;;;;;16.98;3.40;;;15.00;99.90;;;;;;6270731;22;20159;-70
2023/05/26 09:57:47;;;;;;;10.07;3.03;;;15.00;99.90;;;;;;6244688;22;20022;-70
2023/05/26 10:00:17;;;;;;;8.63;3.47;;;15.00;99.90;;;;;;6272463;22;20090;-70
2023/05/26 10:02:45;;;;;;;12.13;2.95;;;15.10;99.90;;;;;;6272253;22;20061;-70
2023/05/26 10:05:11;;;;;;;15.52;3.13;;;15.10;99.90;;;;;;6270494;22;20024;-70
2023/05/26 10:07:39;;;;;;;7.00;2.22;;;15.20;99.90;;;;;;6270969;22;20014;-70
2023/05/26 10:10:08;;;;;;;8.60;2.38;;;15.20;99.90;;;;;;6270612;22;20348;-70
2023/05/26 10:12:35;;;;;;;13.55;2.72;;;15.30;99.90;;;;;;6272714;22;20459;-70
2023/05/26 10:15:03;;;;;;;6.32;2.25;;;15.30;99.90;;;;;;6270573;22;20302;-70
2023/05/26 10:17:30;;;;;;;8.98;2.05;;;15.30;99.90;;;;;;6270351;22;20033;-70
2023/05/26 10:19:57;;;;;;;9.77;2.22;;;15.40;99.90;;;;;;6270215;22;20020;-70
2023/05/26 10:22:41;;;;;;;12.68;2.70;;;15.30;99.90;;;;;;6271892;22;20016;-70
2023/05/26 10:25:34;;;;;;;7.35;2.63;;;15.40;99.90;;;;;;6271637;22;20431;-70
2023/05/26 10:28:13;;;;;;;7.55;2.33;;;15.50;99.90;;;;;;6270154;22;20024;-70
2023/05/26 10:30:41;;;;;;;12.57;2.63;;;15.60;99.90;;;;;;6269604;22;20077;-71
2023/05/26 10:33:08;;;;;;;14.43;2.72;;;15.50;99.90;;;;;;6269438;22;20031;-70
2023/05/26 10:35:34;;;;;;;11.38;2.45;;;15.60;99.90;;;;;;6269489;22;20015;-71
2023/05/26 10:38:03;;;;;;;15.80;3.03;;;15.60;99.90;;;;;;6269697;22;20348;-72
2023/05/26 10:40:40;;;;;;;7.07;2.60;;;15.50;99.90;;;;;;6269551;22;20015;-73
2023/05/26 10:43:23;;;;;;;11.27;2.50;;;15.30;99.90;;;;;;6271240;22;20094;-72
2023/05/26 10:45:59;;;;;;;8.93;2.22;;;15.70;99.90;;;;;;6271307;22;20015;-71
2023/05/26 10:48:32;;;;;;;10.30;2.38;;;15.70;99.90;;;;;;6271026;22;20046;-69
2023/05/26 10:50:58;;;;;;;6.57;2.00;;;15.80;99.90;;;;;;6271439;22;20016;-69
2023/05/26 10:53:25;;;;;;;9.18;2.58;;;15.80;99.90;;;;;;6271604;22;20020;-69
2023/05/26 10:55:59;;;;;;;9.20;2.05;;;16.00;99.90;;;;;;6271235;22;20019;-69
2023/05/26 10:58:28;;;;;;;10.80;2.85;;;16.00;99.90;;;;;;6270160;22;20050;-69
2023/05/26 11:00:55;;;;;;;14.63;2.90;;;16.10;99.90;;;;;;6270216;22;20012;-69
2023/05/26 11:03:41;;;;;;;14.38;2.97;;;16.00;99.90;;;;;;6270208;22;20610;-69
2023/05/26 11:06:08;;;;;;;7.78;2.60;;;16.00;99.90;;;;;;6272030;22;20012;-69
2023/05/26 11:08:48;;;;;;;9.02;2.70;;;16.00;99.90;;;;;;6271472;22;20022;-69
2023/05/26 12:53:53;;;;;;;16.63;3.35;;;16.70;99.90;;;;;;6271143;22;20094;-69
2023/05/26 12:56:19;;;;;;;11.10;3.25;;;16.70;99.90;;;;;;6270774;22;20031;-69
2023/05/26 12:58:46;;;;;;;13.30;3.65;;;16.60;99.90;;;;;;6244849;22;20066;-69
2023/05/26 13:01:13;;;;;;;16.70;3.45;;;16.90;99.90;;;;;;6272528;22;20019;-69
2023/05/26 13:03:40;;;;;;;10.13;2.47;;;16.90;99.90;;;;;;6270771;22;20023;-69
2023/05/26 13:06:07;;;;;;;9.75;2.60;;;16.90;99.90;;;;;;6272587;22;20597;-69
2023/05/26 13:08:33;;;;;;;12.65;3.03;;;16.80;99.90;;;;;;6272534;22;20335;-69
2023/05/26 13:10:59;;;;;;;19.08;3.53;;;16.60;99.90;;;;;;6268989;22;20050;-69
2023/05/26 13:13:25;;;;;;;9.38;2.80;;;16.60;99.90;;;;;;6242861;22;20031;-69
2023/05/26 13:15:51;;;;;;;14.13;3.05;;;16.70;99.90;;;;;;6269715;22;20020;-70
2023/05/26 13:18:18;;;;;;;14.98;3.22;;;16.60;99.90;;;;;;6270672;22;20022;-69
2023/05/26 13:20:43;;;;;;;12.10;3.10;;;16.60;99.90;;;;;;6271003;22;20015;-69
2023/05/26 13:23:09;;;;;;;14.65;3.47;;;16.60;99.90;;;;;;6245440;22;20401;-70
2023/05/26 13:25:35;;;;;;;11.48;2.55;;;16.60;99.90;;;;;;6272890;22;20019;-69
2023/05/26 13:28:00;;;;;;;13.23;3.70;;;16.60;99.90;;;;;;6269703;22;20490;-70
2023/05/26 13:30:27;;;;;;;12.75;2.70;;;16.50;99.90;;;;;;6269998;22;20099;-70
2023/05/26 13:32:55;;;;;;;10.27;2.70;;;16.40;99.90;;;;;;6272266;22;20489;-70
2023/05/26 13:35:21;;;;;;;11.68;3.13;;;16.60;99.90;;;;;;6269272;22;20019;-69
2023/05/26 13:37:47;;;;;;;13.10;2.67;;;16.60;99.90;;;;;;6244385;22;20199;-70
2023/05/26 13:40:13;;;;;;;14.95;3.60;;;16.60;99.90;;;;;;6269373;22;20023;-69
2023/05/26 13:42:39;;;;;;;13.57;3.20;;;16.50;99.90;;;;;;6271503;22;20019;-72
2023/05/26 13:45:07;;;;;;;15.40;4.03;;;16.50;99.90;;;;;;6269501;22;20015;-69
2023/05/26 13:47:33;;;;;;;22.27;3.75;;;16.80;99.90;;;;;;6271074;22;20019;-69
2023/05/26 13:50:00;;;;;;;12.73;3.30;;;16.80;99.90;;;;;;6269586;22;20024;-69
2023/05/26 13:52:28;;;;;;;12.70;2.47;;;16.90;99.90;;;;;;6270369;22;20098;-70
2023/05/26 13:54:53;;;;;;;9.45;2.25;;;16.60;99.90;;;;;;6272579;22;20019;-69
2023/05/26 13:57:19;;;;;;;8.93;2.25;;;16.60;99.90;;;;;;6272614;22;20513;-69
2023/05/26 13:59:45;;;;;;;11.68;2.15;;;16.60;99.90;;;;;;6270113;22;20430;-69
2023/05/26 14:02:11;;;;;;;13.80;3.20;;;16.60;99.90;;;;;;6267522;22;20103;-69
2023/05/26 14:04:37;;;;;;;12.43;2.63;;;16.50;99.90;;;;;;6270284;22;20020;-69
2023/05/26 14:07:03;;;;;;;10.18;2.17;;;16.50;99.90;;;;;;6268828;22;20094;-69
2023/05/26 14:09:29;;;;;;;6.95;2.60;;;16.50;99.90;;;;;;6271666;22;20042;-69
2023/05/26 14:11:55;;;;;;;16.95;2.90;;;16.50;99.90;;;;;;6271828;22;20440;-69
2023/05/26 14:14:20;;;;;;;8.95;2.17;;;16.50;99.90;;;;;;6271498;22;20546;-69
2023/05/26 14:16:46;;;;;;;7.88;2.17;;;16.50;99.90;;;;;;6270033;22;20099;-70
2023/05/26 14:19:14;;;;;;;11.60;2.78;;;16.40;99.90;;;;;;6268660;22;20018;-70
2023/05/26 14:21:41;;;;;;;7.97;2.78;;;16.40;99.90;;;;;;6270048;22;20166;-70
2023/05/26 14:24:08;;;;;;;9.75;2.55;;;16.60;99.90;;;;;;6269677;22;20073;-70
2023/05/26 14:26:34;;;;;;;10.57;2.60;;;16.60;99.90;;;;;;6269994;22;20020;-70